sensor_id;sensor_type;location;lat;lon;timestamp;P1;durP1;ratioP1;P2;durP2;ratioP2
66163;SDS011;52962;51.088;3.096;2023-05-07T00:00:33;9.20;;;8.38;;
66163;SDS011;52962;51.088;3.096;2023-05-07T00:03:01;11.50;;;8.38;;
66163;SDS011;52962;51.088;3.096;2023-05-07T00:05:29;9.45;;;8.18;;
66163;SDS011;52962;51.088;3.096;2023-05-07T00:07:57;8.70;;;7.85;;
66163;SDS011;52962;51.088;3.096;2023-05-07T00:10:25;8.88;;;8.13;;
66163;SDS011;52962;51.088;3.096;2023-05-07T00:12:53;8.60;;;7.80;;
66163;SDS011;52962;51.088;3.096;2023-05-07T00:15:22;9.80;;;8.90;;
66163;SDS011;52962;51.088;3.096;2023-05-07T00:17:50;9.43;;;7.78;;
66163;SDS011;52962;51.088;3.096;2023-05-07T00:20:18;7.70;;;7.00;;
66163;SDS011;52962;51.088;3.096;2023-05-07T00:22:46;7.65;;;6.85;;
66163;SDS011;52962;51.088;3.096;2023-05-07T00:25:14;11.93;;;6.93;;
66163;SDS011;52962;51.088;3.096;2023-05-07T00:27:42;10.23;;;8.93;;
66163;SDS011;52962;51.088;3.096;2023-05-07T00:30:10;7.90;;;6.95;;
66163;SDS011;52962;51.088;3.096;2023-05-07T00:32:40;10.00;;;7.70;;
66163;SDS011;52962;51.088;3.096;2023-05-07T00:35:08;8.30;;;6.65;;
66163;SDS011;52962;51.088;3.096;2023-05-07T00:37:36;7.85;;;7.05;;
66163;SDS011;52962;51.088;3.096;2023-05-07T00:40:05;7.63;;;6.85;;
66163;SDS011;52962;51.088;3.096;2023-05-07T00:42:34;7.22;;;6.53;;
66163;SDS011;52962;51.088;3.096;2023-05-07T00:45:03;7.72;;;6.57;;
66163;SDS011;52962;51.088;3.096;2023-05-07T00:50:00;9.20;;;7.10;;
66163;SDS011;52962;51.088;3.096;2023-05-07T00:52:28;7.43;;;6.18;;
66163;SDS011;52962;51.088;3.096;2023-05-07T00:54:56;10.98;;;7.00;;
66163;SDS011;52962;51.088;3.096;2023-05-07T00:57:24;6.78;;;5.85;;
66163;SDS011;52962;51.088;3.096;2023-05-07T00:59:52;8.27;;;5.70;;
66163;SDS011;52962;51.088;3.096;2023-05-07T01:02:20;8.65;;;7.10;;
66163;SDS011;52962;51.088;3.096;2023-05-07T01:04:48;8.48;;;5.95;;
66163;SDS011;52962;51.088;3.096;2023-05-07T01:07:18;6.95;;;6.25;;
66163;SDS011;52962;51.088;3.096;2023-05-07T01:09:46;8.18;;;7.38;;
66163;SDS011;52962;51.088;3.096;2023-05-07T01:12:14;6.93;;;6.00;;
66163;SDS011;52962;51.088;3.096;2023-05-07T01:14:42;7.30;;;6.55;;
66163;SDS011;52962;51.088;3.096;2023-05-07T01:17:10;7.72;;;6.53;;
66163;SDS011;52962;51.088;3.096;2023-05-07T01:19:38;6.25;;;5.78;;
66163;SDS011;52962;51.088;3.096;2023-05-07T01:22:08;7.78;;;6.18;;
66163;SDS011;52962;51.088;3.096;2023-05-07T01:24:50;8.07;;;5.85;;
66163;SDS011;52962;51.088;3.096;2023-05-07T01:27:18;7.18;;;5.78;;
66163;SDS011;52962;51.088;3.096;2023-05-07T01:29:49;10.18;;;7.40;;
66163;SDS011;52962;51.088;3.096;2023-05-07T01:32:17;6.03;;;5.45;;
66163;SDS011;52962;51.088;3.096;2023-05-07T01:34:46;9.63;;;6.63;;
66163;SDS011;52962;51.088;3.096;2023-05-07T01:37:15;7.05;;;6.38;;
66163;SDS011;52962;51.088;3.096;2023-05-07T01:39:44;8.13;;;7.38;;
66163;SDS011;52962;51.088;3.096;2023-05-07T01:42:15;8.90;;;6.18;;
66163;SDS011;52962;51.088;3.096;2023-05-07T01:44:42;6.70;;;5.68;;
66163;SDS011;52962;51.088;3.096;2023-05-07T01:47:10;7.43;;;5.78;;
66163;SDS011;52962;51.088;3.096;2023-05-07T01:49:39;7.45;;;5.78;;
66163;SDS011;52962;51.088;3.096;2023-05-07T01:52:07;6.07;;;5.40;;
66163;SDS011;52962;51.088;3.096;2023-05-07T01:54:35;8.40;;;5.55;;
66163;SDS011;52962;51.088;3.096;2023-05-07T01:59:33;7.03;;;5.63;;
66163;SDS011;52962;51.088;3.096;2023-05-07T02:02:01;7.00;;;5.80;;
66163;SDS011;52962;51.088;3.096;2023-05-07T02:04:30;6.68;;;5.80;;
66163;SDS011;52962;51.088;3.096;2023-05-07T02:06:58;7.15;;;5.95;;
66163;SDS011;52962;51.088;3.096;2023-05-07T02:09:26;8.63;;;5.78;;
66163;SDS011;52962;51.088;3.096;2023-05-07T02:11:55;6.97;;;6.03;;
66163;SDS011;52962;51.088;3.096;2023-05-07T02:14:23;6.65;;;5.85;;
66163;SDS011;52962;51.088;3.096;2023-05-07T02:16:54;6.90;;;5.95;;
66163;SDS011;52962;51.088;3.096;2023-05-07T02:19:22;6.43;;;5.82;;
66163;SDS011;52962;51.088;3.096;2023-05-07T02:21:50;9.70;;;5.88;;
66163;SDS011;52962;51.088;3.096;2023-05-07T02:24:19;8.60;;;5.47;;
66163;SDS011;52962;51.088;3.096;2023-05-07T02:26:47;8.55;;;6.72;;
66163;SDS011;52962;51.088;3.096;2023-05-07T02:29:15;6.35;;;5.53;;
66163;SDS011;52962;51.088;3.096;2023-05-07T02:34:12;8.38;;;5.45;;
66163;SDS011;52962;51.088;3.096;2023-05-07T02:36:40;6.82;;;5.60;;
66163;SDS011;52962;51.088;3.096;2023-05-07T02:39:11;6.47;;;5.85;;
66163;SDS011;52962;51.088;3.096;2023-05-07T02:41:39;7.82;;;5.32;;
66163;SDS011;52962;51.088;3.096;2023-05-07T02:44:07;8.43;;;5.95;;
66163;SDS011;52962;51.088;3.096;2023-05-07T02:46:37;4.95;;;4.55;;
66163;SDS011;52962;51.088;3.096;2023-05-07T02:49:09;6.07;;;5.28;;
66163;SDS011;52962;51.088;3.096;2023-05-07T02:51:38;5.53;;;4.75;;
66163;SDS011;52962;51.088;3.096;2023-05-07T02:54:11;6.18;;;5.10;;
66163;SDS011;52962;51.088;3.096;2023-05-07T02:56:39;6.70;;;5.32;;
66163;SDS011;52962;51.088;3.096;2023-05-07T02:59:07;6.90;;;5.68;;
66163;SDS011;52962;51.088;3.096;2023-05-07T03:01:38;5.63;;;5.13;;
66163;SDS011;52962;51.088;3.096;2023-05-07T03:04:08;6.90;;;5.65;;
66163;SDS011;52962;51.088;3.096;2023-05-07T03:06:38;6.20;;;5.60;;
66163;SDS011;52962;51.088;3.096;2023-05-07T03:09:06;7.88;;;5.47;;
66163;SDS011;52962;51.088;3.096;2023-05-07T03:11:35;5.80;;;5.22;;
66163;SDS011;52962;51.088;3.096;2023-05-07T03:14:03;7.10;;;4.75;;
66163;SDS011;52962;51.088;3.096;2023-05-07T03:16:30;5.90;;;5.28;;
66163;SDS011;52962;51.088;3.096;2023-05-07T03:18:58;5.38;;;4.70;;
66163;SDS011;52962;51.088;3.096;2023-05-07T03:21:28;7.03;;;5.30;;
66163;SDS011;52962;51.088;3.096;2023-05-07T03:23:58;6.50;;;4.97;;
66163;SDS011;52962;51.088;3.096;2023-05-07T03:26:26;10.10;;;7.72;;
66163;SDS011;52962;51.088;3.096;2023-05-07T03:28:55;7.18;;;6.35;;
66163;SDS011;52962;51.088;3.096;2023-05-07T03:33:52;5.60;;;5.03;;
66163;SDS011;52962;51.088;3.096;2023-05-07T03:36:20;9.50;;;6.13;;
66163;SDS011;52962;51.088;3.096;2023-05-07T03:38:49;7.47;;;5.80;;
66163;SDS011;52962;51.088;3.096;2023-05-07T03:41:22;6.50;;;5.82;;
66163;SDS011;52962;51.088;3.096;2023-05-07T03:43:50;7.25;;;5.47;;
66163;SDS011;52962;51.088;3.096;2023-05-07T03:48:46;7.00;;;5.45;;
66163;SDS011;52962;51.088;3.096;2023-05-07T03:51:15;6.63;;;4.97;;
66163;SDS011;52962;51.088;3.096;2023-05-07T03:53:43;9.80;;;5.72;;
66163;SDS011;52962;51.088;3.096;2023-05-07T03:56:11;7.20;;;5.03;;
66163;SDS011;52962;51.088;3.096;2023-05-07T03:58:42;6.25;;;5.63;;
66163;SDS011;52962;51.088;3.096;2023-05-07T04:01:10;6.15;;;5.32;;
66163;SDS011;52962;51.088;3.096;2023-05-07T04:03:39;9.63;;;6.38;;
66163;SDS011;52962;51.088;3.096;2023-05-07T04:06:07;6.82;;;6.15;;
66163;SDS011;52962;51.088;3.096;2023-05-07T04:08:35;5.55;;;5.05;;
66163;SDS011;52962;51.088;3.096;2023-05-07T04:11:05;5.38;;;4.78;;
66163;SDS011;52962;51.088;3.096;2023-05-07T04:13:35;7.28;;;5.75;;
66163;SDS011;52962;51.088;3.096;2023-05-07T04:16:06;6.28;;;5.65;;
66163;SDS011;52962;51.088;3.096;2023-05-07T04:18:36;7.55;;;6.32;;
66163;SDS011;52962;51.088;3.096;2023-05-07T04:23:35;5.90;;;5.13;;
66163;SDS011;52962;51.088;3.096;2023-05-07T04:26:07;6.10;;;5.55;;
66163;SDS011;52962;51.088;3.096;2023-05-07T04:28:39;9.25;;;5.85;;
66163;SDS011;52962;51.088;3.096;2023-05-07T04:33:37;5.43;;;4.63;;
66163;SDS011;52962;51.088;3.096;2023-05-07T04:36:09;7.43;;;5.25;;
66163;SDS011;52962;51.088;3.096;2023-05-07T04:38:45;8.48;;;5.05;;
66163;SDS011;52962;51.088;3.096;2023-05-07T04:41:13;8.95;;;6.20;;
66163;SDS011;52962;51.088;3.096;2023-05-07T04:43:42;7.32;;;5.28;;
66163;SDS011;52962;51.088;3.096;2023-05-07T04:46:12;6.97;;;5.50;;
66163;SDS011;52962;51.088;3.096;2023-05-07T04:48:43;7.93;;;5.68;;
66163;SDS011;52962;51.088;3.096;2023-05-07T04:51:11;8.18;;;6.00;;
66163;SDS011;52962;51.088;3.096;2023-05-07T04:53:39;9.02;;;6.00;;
66163;SDS011;52962;51.088;3.096;2023-05-07T04:56:07;9.82;;;6.75;;
66163;SDS011;52962;51.088;3.096;2023-05-07T04:58:41;7.18;;;6.05;;
66163;SDS011;52962;51.088;3.096;2023-05-07T05:01:09;9.35;;;5.70;;
66163;SDS011;52962;51.088;3.096;2023-05-07T05:03:38;7.90;;;5.65;;
66163;SDS011;52962;51.088;3.096;2023-05-07T05:06:09;6.85;;;5.78;;
66163;SDS011;52962;51.088;3.096;2023-05-07T05:08:37;5.68;;;5.20;;
66163;SDS011;52962;51.088;3.096;2023-05-07T05:11:05;6.65;;;5.72;;
66163;SDS011;52962;51.088;3.096;2023-05-07T05:13:35;7.38;;;5.95;;
66163;SDS011;52962;51.088;3.096;2023-05-07T05:16:16;8.95;;;5.65;;
66163;SDS011;52962;51.088;3.096;2023-05-07T05:21:16;9.68;;;4.82;;
66163;SDS011;52962;51.088;3.096;2023-05-07T05:23:46;6.88;;;5.70;;
66163;SDS011;52962;51.088;3.096;2023-05-07T05:26:19;7.05;;;5.22;;
66163;SDS011;52962;51.088;3.096;2023-05-07T05:28:48;6.47;;;5.45;;
66163;SDS011;52962;51.088;3.096;2023-05-07T05:31:19;8.63;;;5.35;;
66163;SDS011;52962;51.088;3.096;2023-05-07T05:33:49;9.10;;;5.82;;
66163;SDS011;52962;51.088;3.096;2023-05-07T05:36:18;6.45;;;4.70;;
66163;SDS011;52962;51.088;3.096;2023-05-07T05:38:48;7.78;;;5.18;;
66163;SDS011;52962;51.088;3.096;2023-05-07T05:41:16;9.18;;;4.97;;
66163;SDS011;52962;51.088;3.096;2023-05-07T05:43:44;5.93;;;4.93;;
66163;SDS011;52962;51.088;3.096;2023-05-07T05:46:12;9.00;;;5.55;;
66163;SDS011;52962;51.088;3.096;2023-05-07T05:48:40;7.90;;;5.50;;
66163;SDS011;52962;51.088;3.096;2023-05-07T05:51:10;5.85;;;5.20;;
66163;SDS011;52962;51.088;3.096;2023-05-07T05:53:39;6.72;;;5.68;;
66163;SDS011;52962;51.088;3.096;2023-05-07T05:56:07;6.93;;;6.22;;
66163;SDS011;52962;51.088;3.096;2023-05-07T05:58:37;6.60;;;6.00;;
66163;SDS011;52962;51.088;3.096;2023-05-07T06:01:07;6.13;;;5.53;;
66163;SDS011;52962;51.088;3.096;2023-05-07T06:03:36;6.82;;;5.35;;
66163;SDS011;52962;51.088;3.096;2023-05-07T06:06:10;7.93;;;6.43;;
66163;SDS011;52962;51.088;3.096;2023-05-07T06:08:37;6.72;;;5.75;;
66163;SDS011;52962;51.088;3.096;2023-05-07T06:11:07;8.95;;;6.22;;
66163;SDS011;52962;51.088;3.096;2023-05-07T06:13:37;8.63;;;6.15;;
66163;SDS011;52962;51.088;3.096;2023-05-07T06:16:05;6.07;;;5.47;;
66163;SDS011;52962;51.088;3.096;2023-05-07T06:18:34;8.82;;;5.72;;
66163;SDS011;52962;51.088;3.096;2023-05-07T06:21:03;8.25;;;5.72;;
66163;SDS011;52962;51.088;3.096;2023-05-07T06:23:32;6.30;;;5.38;;
66163;SDS011;52962;51.088;3.096;2023-05-07T06:26:01;8.75;;;5.50;;
66163;SDS011;52962;51.088;3.096;2023-05-07T06:28:36;6.80;;;5.13;;
66163;SDS011;52962;51.088;3.096;2023-05-07T06:31:13;9.95;;;6.00;;
66163;SDS011;52962;51.088;3.096;2023-05-07T06:33:44;6.80;;;5.90;;
66163;SDS011;52962;51.088;3.096;2023-05-07T06:36:13;7.45;;;6.15;;
66163;SDS011;52962;51.088;3.096;2023-05-07T06:38:43;7.60;;;5.72;;
66163;SDS011;52962;51.088;3.096;2023-05-07T06:41:11;6.47;;;5.97;;
66163;SDS011;52962;51.088;3.096;2023-05-07T06:43:40;7.13;;;5.50;;
66163;SDS011;52962;51.088;3.096;2023-05-07T06:46:31;6.90;;;4.97;;
66163;SDS011;52962;51.088;3.096;2023-05-07T06:51:27;5.70;;;5.15;;
66163;SDS011;52962;51.088;3.096;2023-05-07T06:53:57;8.38;;;5.32;;
66163;SDS011;52962;51.088;3.096;2023-05-07T06:56:25;8.27;;;5.13;;
66163;SDS011;52962;51.088;3.096;2023-05-07T06:58:54;5.63;;;4.85;;
66163;SDS011;52962;51.088;3.096;2023-05-07T07:01:22;10.88;;;5.90;;
66163;SDS011;52962;51.088;3.096;2023-05-07T07:03:50;5.78;;;5.13;;
66163;SDS011;52962;51.088;3.096;2023-05-07T07:06:20;9.48;;;5.43;;
66163;SDS011;52962;51.088;3.096;2023-05-07T07:08:49;9.00;;;6.70;;
66163;SDS011;52962;51.088;3.096;2023-05-07T07:11:18;7.78;;;6.05;;
66163;SDS011;52962;51.088;3.096;2023-05-07T07:13:47;6.45;;;5.25;;
66163;SDS011;52962;51.088;3.096;2023-05-07T07:16:16;9.32;;;6.28;;
66163;SDS011;52962;51.088;3.096;2023-05-07T07:18:45;6.10;;;5.28;;
66163;SDS011;52962;51.088;3.096;2023-05-07T07:21:13;6.28;;;4.97;;
66163;SDS011;52962;51.088;3.096;2023-05-07T07:23:41;9.20;;;5.85;;
66163;SDS011;52962;51.088;3.096;2023-05-07T07:26:09;6.75;;;5.63;;
66163;SDS011;52962;51.088;3.096;2023-05-07T07:28:41;8.38;;;5.43;;
66163;SDS011;52962;51.088;3.096;2023-05-07T07:31:12;8.10;;;4.80;;
66163;SDS011;52962;51.088;3.096;2023-05-07T07:33:42;7.38;;;5.05;;
66163;SDS011;52962;51.088;3.096;2023-05-07T07:36:10;9.25;;;5.53;;
66163;SDS011;52962;51.088;3.096;2023-05-07T07:38:39;9.45;;;5.10;;
66163;SDS011;52962;51.088;3.096;2023-05-07T07:43:35;5.68;;;4.47;;
66163;SDS011;52962;51.088;3.096;2023-05-07T07:46:03;7.05;;;5.65;;
66163;SDS011;52962;51.088;3.096;2023-05-07T07:48:33;5.15;;;4.65;;
66163;SDS011;52962;51.088;3.096;2023-05-07T07:51:03;6.10;;;4.20;;
66163;SDS011;52962;51.088;3.096;2023-05-07T07:53:31;6.07;;;4.60;;
66163;SDS011;52962;51.088;3.096;2023-05-07T07:58:31;5.88;;;5.10;;
66163;SDS011;52962;51.088;3.096;2023-05-07T08:03:27;5.07;;;4.30;;
66163;SDS011;52962;51.088;3.096;2023-05-07T08:06:00;6.25;;;4.50;;
66163;SDS011;52962;51.088;3.096;2023-05-07T08:08:30;5.00;;;4.32;;
66163;SDS011;52962;51.088;3.096;2023-05-07T08:10:58;5.97;;;4.32;;
66163;SDS011;52962;51.088;3.096;2023-05-07T08:13:30;5.93;;;4.32;;
66163;SDS011;52962;51.088;3.096;2023-05-07T08:15:59;5.45;;;4.15;;
66163;SDS011;52962;51.088;3.096;2023-05-07T08:18:27;7.57;;;4.65;;
66163;SDS011;52962;51.088;3.096;2023-05-07T08:20:59;6.20;;;4.57;;
66163;SDS011;52962;51.088;3.096;2023-05-07T08:23:30;7.18;;;4.82;;
66163;SDS011;52962;51.088;3.096;2023-05-07T08:25:59;5.60;;;4.25;;
66163;SDS011;52962;51.088;3.096;2023-05-07T08:28:28;6.07;;;4.43;;
66163;SDS011;52962;51.088;3.096;2023-05-07T08:33:29;3.75;;;2.92;;
66163;SDS011;52962;51.088;3.096;2023-05-07T08:35:57;3.10;;;2.88;;
66163;SDS011;52962;51.088;3.096;2023-05-07T08:38:25;4.93;;;2.67;;
66163;SDS011;52962;51.088;3.096;2023-05-07T08:40:55;3.17;;;2.10;;
66163;SDS011;52962;51.088;3.096;2023-05-07T08:43:23;3.92;;;2.28;;
66163;SDS011;52962;51.088;3.096;2023-05-07T08:45:52;3.58;;;2.55;;
66163;SDS011;52962;51.088;3.096;2023-05-07T08:48:25;3.88;;;2.58;;
66163;SDS011;52962;51.088;3.096;2023-05-07T08:51:02;3.15;;;2.65;;
66163;SDS011;52962;51.088;3.096;2023-05-07T08:53:30;2.13;;;1.85;;
66163;SDS011;52962;51.088;3.096;2023-05-07T08:56:00;2.88;;;1.73;;
66163;SDS011;52962;51.088;3.096;2023-05-07T08:58:29;1.83;;;1.15;;
66163;SDS011;52962;51.088;3.096;2023-05-07T09:00:58;2.28;;;1.40;;
66163;SDS011;52962;51.088;3.096;2023-05-07T09:03:27;4.00;;;1.50;;
66163;SDS011;52962;51.088;3.096;2023-05-07T09:05:55;2.80;;;1.90;;
66163;SDS011;52962;51.088;3.096;2023-05-07T09:08:25;1.90;;;1.50;;
66163;SDS011;52962;51.088;3.096;2023-05-07T09:10:57;1.90;;;1.42;;
66163;SDS011;52962;51.088;3.096;2023-05-07T09:13:27;2.97;;;1.27;;
66163;SDS011;52962;51.088;3.096;2023-05-07T09:15:57;5.70;;;1.50;;
66163;SDS011;52962;51.088;3.096;2023-05-07T09:18:25;3.70;;;1.20;;
66163;SDS011;52962;51.088;3.096;2023-05-07T09:20:55;2.10;;;1.25;;
66163;SDS011;52962;51.088;3.096;2023-05-07T09:23:23;2.15;;;1.60;;
66163;SDS011;52962;51.088;3.096;2023-05-07T09:25:52;2.70;;;1.75;;
66163;SDS011;52962;51.088;3.096;2023-05-07T09:28:32;2.55;;;1.30;;
66163;SDS011;52962;51.088;3.096;2023-05-07T09:31:00;4.90;;;1.63;;
66163;SDS011;52962;51.088;3.096;2023-05-07T09:33:28;4.78;;;2.45;;
66163;SDS011;52962;51.088;3.096;2023-05-07T09:36:01;2.28;;;1.98;;
66163;SDS011;52962;51.088;3.096;2023-05-07T09:38:29;4.22;;;2.28;;
66163;SDS011;52962;51.088;3.096;2023-05-07T09:41:02;5.40;;;2.72;;
66163;SDS011;52962;51.088;3.096;2023-05-07T09:43:35;2.67;;;2.42;;
66163;SDS011;52962;51.088;3.096;2023-05-07T09:46:06;5.47;;;3.10;;
66163;SDS011;52962;51.088;3.096;2023-05-07T09:48:36;5.32;;;3.55;;
66163;SDS011;52962;51.088;3.096;2023-05-07T09:51:08;4.60;;;3.67;;
66163;SDS011;52962;51.088;3.096;2023-05-07T09:53:39;6.90;;;4.28;;
66163;SDS011;52962;51.088;3.096;2023-05-07T09:56:08;9.43;;;4.13;;
66163;SDS011;52962;51.088;3.096;2023-05-07T09:58:38;4.03;;;3.72;;
66163;SDS011;52962;51.088;3.096;2023-05-07T10:01:07;4.05;;;3.70;;
66163;SDS011;52962;51.088;3.096;2023-05-07T10:03:35;5.53;;;4.32;;
66163;SDS011;52962;51.088;3.096;2023-05-07T10:06:04;5.97;;;3.15;;
66163;SDS011;52962;51.088;3.096;2023-05-07T10:08:32;3.45;;;2.65;;
66163;SDS011;52962;51.088;3.096;2023-05-07T10:11:02;3.38;;;2.90;;
66163;SDS011;52962;51.088;3.096;2023-05-07T10:13:30;2.47;;;2.25;;
66163;SDS011;52962;51.088;3.096;2023-05-07T10:16:00;2.83;;;2.63;;
66163;SDS011;52962;51.088;3.096;2023-05-07T10:18:34;3.38;;;2.10;;
66163;SDS011;52962;51.088;3.096;2023-05-07T10:23:36;3.45;;;1.90;;
66163;SDS011;52962;51.088;3.096;2023-05-07T10:26:06;3.58;;;2.38;;
66163;SDS011;52962;51.088;3.096;2023-05-07T10:28:37;2.42;;;2.22;;
66163;SDS011;52962;51.088;3.096;2023-05-07T10:31:14;2.15;;;1.75;;
66163;SDS011;52962;51.088;3.096;2023-05-07T10:33:47;3.90;;;1.92;;
66163;SDS011;52962;51.088;3.096;2023-05-07T10:36:20;2.95;;;2.45;;
66163;SDS011;52962;51.088;3.096;2023-05-07T10:38:51;3.63;;;1.65;;
66163;SDS011;52962;51.088;3.096;2023-05-07T10:41:20;2.78;;;2.13;;
66163;SDS011;52962;51.088;3.096;2023-05-07T10:43:50;2.85;;;1.77;;
66163;SDS011;52962;51.088;3.096;2023-05-07T10:46:29;2.75;;;2.13;;
66163;SDS011;52962;51.088;3.096;2023-05-07T10:49:16;5.65;;;3.17;;
66163;SDS011;52962;51.088;3.096;2023-05-07T10:52:13;2.40;;;2.20;;
66163;SDS011;52962;51.088;3.096;2023-05-07T10:57:49;3.30;;;1.80;;
66163;SDS011;52962;51.088;3.096;2023-05-07T11:00:41;2.80;;;2.13;;
66163;SDS011;52962;51.088;3.096;2023-05-07T11:03:19;2.25;;;1.98;;
66163;SDS011;52962;51.088;3.096;2023-05-07T11:06:09;2.47;;;1.52;;
66163;SDS011;52962;51.088;3.096;2023-05-07T11:09:02;1.67;;;1.58;;
66163;SDS011;52962;51.088;3.096;2023-05-07T11:11:50;1.55;;;1.40;;
66163;SDS011;52962;51.088;3.096;2023-05-07T11:14:44;2.47;;;1.83;;
66163;SDS011;52962;51.088;3.096;2023-05-07T11:17:24;1.63;;;1.52;;
66163;SDS011;52962;51.088;3.096;2023-05-07T11:20:01;1.23;;;1.10;;
66163;SDS011;52962;51.088;3.096;2023-05-07T11:22:51;1.88;;;1.15;;
66163;SDS011;52962;51.088;3.096;2023-05-07T11:25:21;1.35;;;1.13;;
66163;SDS011;52962;51.088;3.096;2023-05-07T11:27:56;2.67;;;1.40;;
66163;SDS011;52962;51.088;3.096;2023-05-07T11:30:24;0.93;;;0.80;;
66163;SDS011;52962;51.088;3.096;2023-05-07T11:35:23;2.22;;;1.17;;
66163;SDS011;52962;51.088;3.096;2023-05-07T11:37:57;1.15;;;1.05;;
66163;SDS011;52962;51.088;3.096;2023-05-07T11:40:26;1.60;;;1.20;;
66163;SDS011;52962;51.088;3.096;2023-05-07T11:42:55;1.88;;;1.33;;
66163;SDS011;52962;51.088;3.096;2023-05-07T11:45:23;3.70;;;1.60;;
66163;SDS011;52962;51.088;3.096;2023-05-07T11:47:51;2.10;;;1.30;;
66163;SDS011;52962;51.088;3.096;2023-05-07T11:50:19;3.30;;;3.00;;
66163;SDS011;52962;51.088;3.096;2023-05-07T11:52:51;2.20;;;2.00;;
66163;SDS011;52962;51.088;3.096;2023-05-07T11:55:19;2.60;;;2.35;;
66163;SDS011;52962;51.088;3.096;2023-05-07T11:57:48;4.78;;;4.30;;
66163;SDS011;52962;51.088;3.096;2023-05-07T12:00:16;6.00;;;4.72;;
66163;SDS011;52962;51.088;3.096;2023-05-07T12:05:12;3.97;;;3.65;;
66163;SDS011;52962;51.088;3.096;2023-05-07T12:07:40;2.25;;;2.05;;
66163;SDS011;52962;51.088;3.096;2023-05-07T12:10:10;2.30;;;2.10;;
66163;SDS011;52962;51.088;3.096;2023-05-07T12:12:38;1.92;;;1.80;;
66163;SDS011;52962;51.088;3.096;2023-05-07T12:15:08;2.22;;;1.80;;
66163;SDS011;52962;51.088;3.096;2023-05-07T12:17:37;3.78;;;1.95;;
66163;SDS011;52962;51.088;3.096;2023-05-07T12:20:05;2.78;;;2.17;;
66163;SDS011;52962;51.088;3.096;2023-05-07T12:22:34;2.50;;;2.30;;
66163;SDS011;52962;51.088;3.096;2023-05-07T12:25:02;3.92;;;2.22;;
66163;SDS011;52962;51.088;3.096;2023-05-07T12:27:32;2.90;;;2.70;;
66163;SDS011;52962;51.088;3.096;2023-05-07T12:30:00;3.05;;;2.67;;
66163;SDS011;52962;51.088;3.096;2023-05-07T12:32:27;3.15;;;2.95;;
66163;SDS011;52962;51.088;3.096;2023-05-07T12:37:24;3.17;;;2.38;;
66163;SDS011;52962;51.088;3.096;2023-05-07T12:40:03;2.50;;;2.30;;
66163;SDS011;52962;51.088;3.096;2023-05-07T12:42:35;3.20;;;2.92;;
66163;SDS011;52962;51.088;3.096;2023-05-07T12:45:07;2.15;;;2.03;;
66163;SDS011;52962;51.088;3.096;2023-05-07T12:47:35;3.70;;;2.17;;
66163;SDS011;52962;51.088;3.096;2023-05-07T12:50:05;2.10;;;1.90;;
66163;SDS011;52962;51.088;3.096;2023-05-07T12:52:33;3.10;;;2.50;;
66163;SDS011;52962;51.088;3.096;2023-05-07T12:57:29;2.45;;;2.25;;
66163;SDS011;52962;51.088;3.096;2023-05-07T12:59:58;3.05;;;2.63;;
66163;SDS011;52962;51.088;3.096;2023-05-07T13:02:31;4.03;;;2.95;;
66163;SDS011;52962;51.088;3.096;2023-05-07T13:05:00;5.57;;;2.15;;
66163;SDS011;52962;51.088;3.096;2023-05-07T13:07:27;3.42;;;2.33;;
66163;SDS011;52962;51.088;3.096;2023-05-07T13:09:56;2.53;;;2.30;;
66163;SDS011;52962;51.088;3.096;2023-05-07T13:12:24;2.60;;;2.28;;
66163;SDS011;52962;51.088;3.096;2023-05-07T13:17:21;2.30;;;2.10;;
66163;SDS011;52962;51.088;3.096;2023-05-07T13:19:49;2.85;;;2.03;;
66163;SDS011;52962;51.088;3.096;2023-05-07T13:22:17;2.60;;;2.08;;
66163;SDS011;52962;51.088;3.096;2023-05-07T13:24:45;2.53;;;1.50;;
66163;SDS011;52962;51.088;3.096;2023-05-07T13:27:12;1.98;;;1.77;;
66163;SDS011;52962;51.088;3.096;2023-05-07T13:29:40;3.25;;;2.05;;
66163;SDS011;52962;51.088;3.096;2023-05-07T13:32:08;2.90;;;1.75;;
66163;SDS011;52962;51.088;3.096;2023-05-07T13:37:06;4.07;;;1.95;;
66163;SDS011;52962;51.088;3.096;2023-05-07T13:39:37;2.15;;;1.80;;
66163;SDS011;52962;51.088;3.096;2023-05-07T13:42:04;4.97;;;2.45;;
66163;SDS011;52962;51.088;3.096;2023-05-07T13:44:32;2.75;;;2.10;;
66163;SDS011;52962;51.088;3.096;2023-05-07T13:47:00;2.75;;;1.88;;
66163;SDS011;52962;51.088;3.096;2023-05-07T13:49:28;3.80;;;2.20;;
66163;SDS011;52962;51.088;3.096;2023-05-07T13:51:56;2.10;;;1.92;;
66163;SDS011;52962;51.088;3.096;2023-05-07T13:54:25;4.50;;;1.92;;
66163;SDS011;52962;51.088;3.096;2023-05-07T13:56:53;3.38;;;2.22;;
66163;SDS011;52962;51.088;3.096;2023-05-07T13:59:21;2.95;;;2.17;;
66163;SDS011;52962;51.088;3.096;2023-05-07T14:01:49;4.18;;;2.53;;
66163;SDS011;52962;51.088;3.096;2023-05-07T14:06:44;1.80;;;1.67;;
66163;SDS011;52962;51.088;3.096;2023-05-07T14:09:12;2.60;;;2.17;;
66163;SDS011;52962;51.088;3.096;2023-05-07T14:11:41;3.55;;;1.35;;
66163;SDS011;52962;51.088;3.096;2023-05-07T14:14:09;2.50;;;1.75;;
66163;SDS011;52962;51.088;3.096;2023-05-07T14:16:38;3.20;;;1.90;;
66163;SDS011;52962;51.088;3.096;2023-05-07T14:21:33;2.60;;;1.70;;
66163;SDS011;52962;51.088;3.096;2023-05-07T14:24:01;2.42;;;1.92;;
66163;SDS011;52962;51.088;3.096;2023-05-07T14:26:29;2.28;;;1.70;;
66163;SDS011;52962;51.088;3.096;2023-05-07T14:28:58;2.20;;;1.77;;
66163;SDS011;52962;51.088;3.096;2023-05-07T14:31:26;3.28;;;1.95;;
66163;SDS011;52962;51.088;3.096;2023-05-07T14:36:24;3.05;;;2.15;;
66163;SDS011;52962;51.088;3.096;2023-05-07T14:38:53;3.13;;;1.92;;
66163;SDS011;52962;51.088;3.096;2023-05-07T14:41:21;2.55;;;1.50;;
66163;SDS011;52962;51.088;3.096;2023-05-07T14:43:49;2.17;;;1.38;;
66163;SDS011;52962;51.088;3.096;2023-05-07T14:46:18;2.35;;;1.38;;
66163;SDS011;52962;51.088;3.096;2023-05-07T14:48:46;2.78;;;1.67;;
66163;SDS011;52962;51.088;3.096;2023-05-07T14:51:14;1.42;;;1.25;;
66163;SDS011;52962;51.088;3.096;2023-05-07T14:53:42;2.08;;;1.50;;
66163;SDS011;52962;51.088;3.096;2023-05-07T14:56:10;3.30;;;1.83;;
66163;SDS011;52962;51.088;3.096;2023-05-07T15:01:05;3.45;;;2.17;;
66163;SDS011;52962;51.088;3.096;2023-05-07T15:03:35;6.57;;;3.25;;
66163;SDS011;52962;51.088;3.096;2023-05-07T15:06:03;3.78;;;3.47;;
66163;SDS011;52962;51.088;3.096;2023-05-07T15:10:59;3.90;;;3.15;;
66163;SDS011;52962;51.088;3.096;2023-05-07T15:13:27;4.40;;;2.97;;
66163;SDS011;52962;51.088;3.096;2023-05-07T15:15:55;4.00;;;2.55;;
66163;SDS011;52962;51.088;3.096;2023-05-07T15:20:52;2.40;;;2.20;;
66163;SDS011;52962;51.088;3.096;2023-05-07T15:23:20;2.17;;;2.08;;
66163;SDS011;52962;51.088;3.096;2023-05-07T15:25:48;2.78;;;2.58;;
66163;SDS011;52962;51.088;3.096;2023-05-07T15:28:18;3.78;;;3.38;;
66163;SDS011;52962;51.088;3.096;2023-05-07T15:30:46;6.38;;;3.15;;
66163;SDS011;52962;51.088;3.096;2023-05-07T15:33:13;4.13;;;3.80;;
66163;SDS011;52962;51.088;3.096;2023-05-07T15:38:10;4.90;;;4.40;;
66163;SDS011;52962;51.088;3.096;2023-05-07T15:40:39;5.07;;;4.60;;
66163;SDS011;52962;51.088;3.096;2023-05-07T15:43:08;4.57;;;3.67;;
66163;SDS011;52962;51.088;3.096;2023-05-07T15:45:38;5.22;;;4.32;;
66163;SDS011;52962;51.088;3.096;2023-05-07T15:48:06;5.00;;;4.60;;
66163;SDS011;52962;51.088;3.096;2023-05-07T15:50:34;6.47;;;5.85;;
66163;SDS011;52962;51.088;3.096;2023-05-07T15:53:02;7.88;;;5.97;;
66163;SDS011;52962;51.088;3.096;2023-05-07T15:55:31;5.93;;;5.38;;
66163;SDS011;52962;51.088;3.096;2023-05-07T15:57:59;7.15;;;6.55;;
66163;SDS011;52962;51.088;3.096;2023-05-07T16:00:28;7.82;;;5.95;;
66163;SDS011;52962;51.088;3.096;2023-05-07T16:05:23;6.97;;;6.15;;
66163;SDS011;52962;51.088;3.096;2023-05-07T16:07:53;6.63;;;6.03;;
66163;SDS011;52962;51.088;3.096;2023-05-07T16:10:22;7.03;;;6.43;;
66163;SDS011;52962;51.088;3.096;2023-05-07T16:12:52;7.93;;;7.18;;
66163;SDS011;52962;51.088;3.096;2023-05-07T16:15:20;8.95;;;7.25;;